createdAt,value
2023-10-20T00:02:38.494Z,15.59
2023-10-20T00:06:40.320Z,15.60
2023-10-20T00:10:42.080Z,15.62
2023-10-20T00:14:43.659Z,15.60
2023-10-20T00:18:45.410Z,15.62
2023-10-20T00:22:47.004Z,15.62
2023-10-20T00:26:48.592Z,15.62
2023-10-20T00:30:50.189Z,15.60
2023-10-20T00:34:51.801Z,15.62
2023-10-20T00:38:53.804Z,15.64
2023-10-20T00:42:55.667Z,15.62
2023-10-20T00:46:58.269Z,15.62
2023-10-20T00:51:02.104Z,15.62
2023-10-20T00:55:04.721Z,15.60
2023-10-20T00:59:06.385Z,15.62
2023-10-20T01:03:08.215Z,15.60
2023-10-20T01:07:09.924Z,15.60
2023-10-20T01:11:11.545Z,15.60
2023-10-20T01:15:17.317Z,15.60
2023-10-20T01:19:18.888Z,15.60
2023-10-20T01:23:20.607Z,15.59
2023-10-20T01:27:22.226Z,15.62
2023-10-20T01:31:23.877Z,15.60
2023-10-20T01:35:26.051Z,15.60
2023-10-20T01:39:27.829Z,15.59
2023-10-20T01:43:29.948Z,15.59
2023-10-20T01:47:32.354Z,15.58
2023-10-20T01:51:35.827Z,15.56
2023-10-20T01:55:40.482Z,15.56
2023-10-20T01:59:42.268Z,15.56
2023-10-20T02:03:44.315Z,15.56
2023-10-20T02:07:45.913Z,15.58
2023-10-20T02:11:47.494Z,15.56
2023-10-20T02:15:49.670Z,15.56
2023-10-20T02:19:51.296Z,15.55
2023-10-20T02:23:53.385Z,15.55
2023-10-20T02:27:54.979Z,15.56
2023-10-20T02:31:57.993Z,15.55
2023-10-20T02:35:59.579Z,15.53
2023-10-20T02:40:05.785Z,15.53
2023-10-20T02:44:08.596Z,15.52
2023-10-20T02:48:10.232Z,15.52
2023-10-20T02:52:14.345Z,15.51
2023-10-20T02:56:17.817Z,15.49
2023-10-20T03:00:22.427Z,15.51
2023-10-20T03:04:24.273Z,15.49
2023-10-20T03:08:25.895Z,15.49
2023-10-20T03:12:27.719Z,15.48
2023-10-20T03:16:29.315Z,15.49
2023-10-20T03:20:31.675Z,15.48
2023-10-20T03:24:34.011Z,15.48
2023-10-20T03:28:35.828Z,15.44
2023-10-20T03:32:37.504Z,15.41
2023-10-20T03:36:39.183Z,15.40
2023-10-20T03:40:47.265Z,15.41
2023-10-20T03:44:49.289Z,15.41
2023-10-20T03:48:50.884Z,15.43
2023-10-20T03:52:53.357Z,15.41
2023-10-20T03:56:57.490Z,15.41
2023-10-20T04:01:02.866Z,15.38
2023-10-20T04:05:06.906Z,15.37
2023-10-20T04:09:12.121Z,15.37
2023-10-20T04:13:14.088Z,15.35
2023-10-20T04:17:17.145Z,15.35
2023-10-20T04:21:19.014Z,15.33
2023-10-20T04:25:23.069Z,15.30
2023-10-20T04:29:34.822Z,15.28
2023-10-20T04:33:55.189Z,15.28
2023-10-20T04:38:15.582Z,15.27
2023-10-20T04:42:43.347Z,15.27
2023-10-20T04:46:53.202Z,15.25
2023-10-20T04:51:10.892Z,15.25
2023-10-20T04:55:27.814Z,15.25
2023-10-20T04:59:32.829Z,15.25
2023-10-20T05:03:46.657Z,15.23
2023-10-20T05:07:50.934Z,15.20
2023-10-20T05:11:54.396Z,15.23
2023-10-20T05:15:56.018Z,15.22
2023-10-20T05:19:57.648Z,15.22
2023-10-20T05:23:59.250Z,15.22
2023-10-20T05:28:01.553Z,15.20
2023-10-20T05:32:03.204Z,15.22
2023-10-20T05:36:05.242Z,15.23
2023-10-20T05:40:07.456Z,15.23
2023-10-20T05:44:13.188Z,15.25
2023-10-20T05:48:15.136Z,15.27
2023-10-20T05:52:16.787Z,15.30
2023-10-20T05:56:18.378Z,15.31
2023-10-20T06:00:20.008Z,15.31
2023-10-20T06:04:21.861Z,15.31
2023-10-20T06:08:23.610Z,15.33
2023-10-20T06:12:25.277Z,15.31
2023-10-20T06:16:27.918Z,15.31
2023-10-20T06:20:29.865Z,15.27
2023-10-20T06:24:31.705Z,15.27
2023-10-20T06:28:33.764Z,15.25
2023-10-20T06:32:44.101Z,15.27
2023-10-20T06:36:49.286Z,15.27
2023-10-20T06:40:51.052Z,15.28
2023-10-20T06:44:53.108Z,15.27
2023-10-20T06:48:54.774Z,15.23
2023-10-20T06:52:56.357Z,15.22
2023-10-20T06:56:58.897Z,15.20
2023-10-20T07:01:05.559Z,15.23
2023-10-20T07:05:07.398Z,15.27
2023-10-20T07:09:13.584Z,15.25
2023-10-20T07:13:16.109Z,15.25
2023-10-20T07:17:17.689Z,15.27
2023-10-20T07:21:19.333Z,15.28
2023-10-20T07:25:20.918Z,15.33
2023-10-20T07:29:22.714Z,15.34
2023-10-20T07:33:24.526Z,15.37
2023-10-20T07:37:26.191Z,15.41
2023-10-20T07:41:27.836Z,15.51
2023-10-20T07:45:29.666Z,15.56
2023-10-20T07:49:31.441Z,15.59
2023-10-20T07:53:33.128Z,15.56
2023-10-20T07:57:36.558Z,15.59
2023-10-20T08:01:38.187Z,15.60
2023-10-20T08:05:41.371Z,15.60
2023-10-20T08:09:43.245Z,15.62
2023-10-20T08:13:51.762Z,15.66
2023-10-20T08:17:53.975Z,15.67
2023-10-20T08:21:55.749Z,15.67
2023-10-20T08:25:57.311Z,15.68
2023-10-20T08:29:59.167Z,15.67
2023-10-20T08:34:01.225Z,15.70
2023-10-20T08:38:02.937Z,15.73
2023-10-20T08:42:16.023Z,15.80
2023-10-20T08:46:19.027Z,15.81
2023-10-20T08:50:22.175Z,15.89
2023-10-20T08:54:24.244Z,15.96
2023-10-20T08:58:28.439Z,16.04
2023-10-20T09:02:39.875Z,16.11
2023-10-20T09:06:41.709Z,16.14
2023-10-20T09:10:44.141Z,16.16
2023-10-20T09:14:45.819Z,16.23
2023-10-20T09:18:54.540Z,16.33
2023-10-20T09:22:56.837Z,16.48
2023-10-20T09:26:58.850Z,16.55
2023-10-20T09:31:01.200Z,16.62
2023-10-20T09:35:05.555Z,16.69
2023-10-20T09:39:12.144Z,16.75
2023-10-20T09:43:26.716Z,16.78
2023-10-20T09:47:29.522Z,16.78
2023-10-20T09:51:32.957Z,16.84
2023-10-20T09:55:34.942Z,16.96
2023-10-20T09:59:39.721Z,17.02
2023-10-20T10:03:44.693Z,17.07
2023-10-20T10:07:47.570Z,17.10
2023-10-20T10:11:52.311Z,17.30
2023-10-20T10:15:54.929Z,17.47
2023-10-20T10:19:57.384Z,17.51
2023-10-20T10:24:16.190Z,17.47
2023-10-20T10:28:20.151Z,17.55
2023-10-20T10:32:23.312Z,17.51
2023-10-20T10:36:25.214Z,17.53
2023-10-20T10:40:27.028Z,17.62
2023-10-20T10:44:40.450Z,17.73
2023-10-20T10:48:42.986Z,17.70
2023-10-20T10:52:44.784Z,17.70
2023-10-20T10:56:46.886Z,17.91
2023-10-20T11:00:48.672Z,17.94
2023-10-20T11:04:50.490Z,18.20
2023-10-20T11:08:53.160Z,18.36
2023-10-20T11:12:58.646Z,18.36
2023-10-20T11:17:04.814Z,18.38
2023-10-20T11:21:06.958Z,18.25
2023-10-20T11:25:11.174Z,18.17
2023-10-20T11:29:12.957Z,18.10
2023-10-20T11:33:16.736Z,18.11
2023-10-20T11:37:18.767Z,18.16
2023-10-20T11:41:20.929Z,18.28
2023-10-20T11:45:22.746Z,18.38
2023-10-20T11:49:27.850Z,18.42
2023-10-20T11:53:29.461Z,18.34
2023-10-20T11:57:31.210Z,18.41
2023-10-20T12:01:33.154Z,18.44
2023-10-20T12:05:38.217Z,18.46
2023-10-20T12:09:40.008Z,18.38
2023-10-20T12:13:47.784Z,18.41
2023-10-20T12:17:49.516Z,18.53
2023-10-20T12:21:51.079Z,18.59
2023-10-20T12:25:52.761Z,18.75
2023-10-20T12:29:54.423Z,18.86
2023-10-20T12:33:56.457Z,18.93
2023-10-20T12:37:58.188Z,19.01
2023-10-20T12:42:06.296Z,19.12
2023-10-20T12:46:08.772Z,19.16
2023-10-20T12:50:11.035Z,19.21
2023-10-20T12:54:12.637Z,19.23
2023-10-20T12:58:15.074Z,19.16
2023-10-20T13:02:16.686Z,19.16
2023-10-20T13:06:18.470Z,19.25
2023-10-20T13:10:20.368Z,19.34
2023-10-20T13:14:22.036Z,19.42
2023-10-20T13:18:23.708Z,19.34
2023-10-20T13:22:28.247Z,19.30
2023-10-20T13:26:29.833Z,19.24
2023-10-20T13:30:31.503Z,19.25
2023-10-20T13:34:35.138Z,19.39
2023-10-20T13:38:38.787Z,19.57
2023-10-20T13:42:41.445Z,19.61
2023-10-20T13:46:42.999Z,19.55
2023-10-20T13:50:44.988Z,19.52
2023-10-20T13:54:48.146Z,19.38
2023-10-20T13:58:49.699Z,19.17
2023-10-20T14:02:51.575Z,18.97
2023-10-20T14:06:53.545Z,18.75
2023-10-20T14:10:56.550Z,18.59
2023-10-20T14:14:58.280Z,18.50
2023-10-20T14:19:00.043Z,18.41
2023-10-20T14:23:04.668Z,18.36
2023-10-20T14:27:06.303Z,18.28
2023-10-20T14:31:08.013Z,18.25
2023-10-20T14:35:09.803Z,18.17
2023-10-20T14:39:12.747Z,18.13
2023-10-20T14:43:14.377Z,18.09
2023-10-20T14:47:16.032Z,18.10
2023-10-20T14:51:17.624Z,18.09
2023-10-20T14:55:19.963Z,18.05
2023-10-20T14:59:21.921Z,18.02
2023-10-20T15:03:23.997Z,17.98
2023-10-20T15:07:25.642Z,17.96
2023-10-20T15:11:29.214Z,17.96
2023-10-20T15:15:37.823Z,17.94
2023-10-20T15:19:39.435Z,17.87
2023-10-20T15:23:41.393Z,17.83
2023-10-20T15:27:43.060Z,17.79
2023-10-20T15:31:44.697Z,17.74
2023-10-20T15:35:47.493Z,17.71
2023-10-20T15:39:55.222Z,17.68
2023-10-20T15:44:05.662Z,17.63
2023-10-20T15:48:07.564Z,17.57
2023-10-20T15:52:09.376Z,17.53
2023-10-20T15:56:14.036Z,17.45
2023-10-20T16:00:16.379Z,17.42
2023-10-20T16:04:18.530Z,17.38
2023-10-20T16:08:20.289Z,17.32
2023-10-20T16:12:21.893Z,17.28
2023-10-20T16:16:26.240Z,17.24
2023-10-20T16:20:27.882Z,17.20
2023-10-20T16:24:29.674Z,17.15
2023-10-20T16:28:31.318Z,17.06
2023-10-20T16:32:35.559Z,16.99
2023-10-20T16:36:37.454Z,16.90
2023-10-20T16:40:39.094Z,16.84
2023-10-20T16:44:41.271Z,16.80
2023-10-20T16:48:43.448Z,16.75
2023-10-20T16:52:45.153Z,16.69
2023-10-20T16:56:47.407Z,16.65
2023-10-20T17:00:49.266Z,16.63
2023-10-20T17:04:51.135Z,16.60
2023-10-20T17:08:52.732Z,16.57
2023-10-20T17:12:54.470Z,16.54
2023-10-20T17:16:56.623Z,16.51
2023-10-20T17:21:05.537Z,16.48
2023-10-20T17:25:07.450Z,16.42
2023-10-20T17:29:09.096Z,16.40
2023-10-20T17:33:10.754Z,16.34
2023-10-20T17:37:12.740Z,16.30
2023-10-20T17:41:16.130Z,16.26
2023-10-20T17:45:23.528Z,16.22
2023-10-20T17:49:25.112Z,16.17
2023-10-20T17:53:27.839Z,16.14
2023-10-20T17:57:29.532Z,16.10
2023-10-20T18:01:31.427Z,16.07
2023-10-20T18:05:33.678Z,16.04
2023-10-20T18:09:35.837Z,15.99
2023-10-20T18:13:44.211Z,15.93
2023-10-20T18:17:45.920Z,15.91
2023-10-20T18:21:47.700Z,15.88
2023-10-20T18:25:56.900Z,15.85
2023-10-20T18:29:58.548Z,15.81
2023-10-20T18:34:00.436Z,15.78
2023-10-20T18:38:01.993Z,15.74
2023-10-20T18:42:05.638Z,15.70
2023-10-20T18:46:07.380Z,15.66
2023-10-20T18:50:09.226Z,15.59
2023-10-20T18:54:11.101Z,15.56
2023-10-20T18:58:12.732Z,15.52
2023-10-20T19:02:14.335Z,15.49
2023-10-20T19:06:16.488Z,15.43
2023-10-20T19:10:18.139Z,15.38
2023-10-20T19:14:19.919Z,15.35
2023-10-20T19:18:21.606Z,15.31
2023-10-20T19:22:23.194Z,15.28
2023-10-20T19:26:24.800Z,15.25
2023-10-20T19:30:26.336Z,15.25
2023-10-20T19:34:27.981Z,15.22
2023-10-20T19:38:29.989Z,15.19
2023-10-20T19:42:31.639Z,15.15
2023-10-20T19:46:33.228Z,15.12
2023-10-20T19:50:37.967Z,15.12
2023-10-20T19:54:39.572Z,15.13
2023-10-20T19:58:41.877Z,15.15
2023-10-20T20:02:43.582Z,15.15
2023-10-20T20:06:49.889Z,15.16
2023-10-20T20:10:51.464Z,15.18
2023-10-20T20:14:53.195Z,15.19
2023-10-20T20:18:54.789Z,15.20
2023-10-20T20:22:56.375Z,15.22
2023-10-20T20:26:58.733Z,15.22
2023-10-20T20:31:00.701Z,15.22
2023-10-20T20:35:02.426Z,15.23
2023-10-20T20:39:07.142Z,15.23
2023-10-20T20:43:08.776Z,15.25
2023-10-20T20:47:10.440Z,15.28
2023-10-20T20:51:12.590Z,15.28
2023-10-20T20:55:14.283Z,15.31
2023-10-20T20:59:15.929Z,15.34
2023-10-20T21:03:17.764Z,15.37
2023-10-20T21:07:19.514Z,15.40
2023-10-20T21:11:21.271Z,15.44
2023-10-20T21:15:22.915Z,15.46
2023-10-20T21:19:24.524Z,15.48
2023-10-20T21:23:26.077Z,15.48
2023-10-20T21:27:27.948Z,15.53
2023-10-20T21:31:29.570Z,15.56
2023-10-20T21:35:31.156Z,15.59
2023-10-20T21:39:33.179Z,15.60
2023-10-20T21:43:34.882Z,15.58
2023-10-20T21:47:36.592Z,15.56
2023-10-20T21:51:39.929Z,15.56
2023-10-20T21:55:41.514Z,15.56
2023-10-20T21:59:43.105Z,15.53
2023-10-20T22:03:46.221Z,15.49
2023-10-20T22:07:47.997Z,15.46
2023-10-20T22:11:49.641Z,15.41
2023-10-20T22:15:51.378Z,15.38
2023-10-20T22:19:53.089Z,15.37
2023-10-20T22:23:54.701Z,15.38
2023-10-20T22:27:59.427Z,15.40
2023-10-20T22:32:01.007Z,15.40
2023-10-20T22:36:02.863Z,15.40
2023-10-20T22:40:05.132Z,15.40
2023-10-20T22:44:07.153Z,15.37
2023-10-20T22:48:08.882Z,15.35
2023-10-20T22:52:10.759Z,15.33
2023-10-20T22:56:12.418Z,15.31
2023-10-20T23:00:14.704Z,15.27
2023-10-20T23:04:18.752Z,15.25
2023-10-20T23:08:20.661Z,15.27
2023-10-20T23:12:22.509Z,15.25
2023-10-20T23:16:24.192Z,15.20
2023-10-20T23:20:25.812Z,15.19
2023-10-20T23:24:27.392Z,15.16
2023-10-20T23:28:29.032Z,15.13
2023-10-20T23:32:30.558Z,15.11
2023-10-20T23:36:32.209Z,15.12
2023-10-20T23:40:33.862Z,15.20
2023-10-20T23:44:35.423Z,15.30
2023-10-20T23:48:37.083Z,15.35
2023-10-20T23:52:38.849Z,15.43
2023-10-20T23:56:40.451Z,15.43
